KGNV/GNV METAR and TAF weather

Enter ICAO airport designator
Station Type Date Time Source
KGNV METAR 2018/12/15 05:06 UTC NOAA

KGNV 150506Z AUTO 27006KT 4SM RA BR FEW013 BKN050 OVC070 18/17 A3002 RMK AO2 P0002 T01830167


Station Type Date Time Source
KGNV Decoded METAR 2018/12/15 05:06 UTC NOAA

GAINESVILLE REGIONAL AIRPORT , FL, United States (KGNV) 29-42N 082-17W 45M
Dec 15, 2018 - 12:06 AM EST / 2018.12.15 0506 UTC
Wind: from the W (270 degrees) at 7 MPH (6 KT):0
Visibility: 4 mile(s):0
Sky conditions: overcast
Weather: rain; mist
Precipitation last hour: 0.02 inches
Temperature: 64.9 F (18.3 C)
Dew Point: 62.1 F (16.7 C)
Relative Humidity: 90%
Pressure (altimeter): 30.02 in. Hg (1016 hPa)
ob: KGNV 150506Z AUTO 27006KT 4SM RA BR FEW013 BKN050 OVC070 18/17 A3002 RMK AO2 P0002 T01830167
cycle: 5

Station Type Date Time Source
KGNV TAF 2018/12/15 06:24 UTC NOAA

TAF KGNV 150523Z 1506/1606 19007KT P6SM VCSH SCT005 BKN015 OVC050
TEMPO 1506/1509 -RA BKN005
FM150900 21005KT P6SM VCSH SCT010 BKN020
TEMPO 1509/1512 -RA BKN010
FM151500 22008KT P6SM SCT015 BKN025
FM152000 24009KT P6SM BKN035


Example: see airport list